Flood From: 18-02-2018 10:00 Until: 19-02-2018 06:00 warning for: Flood Level: Yellow info button

Although rather usual in this region, locally or potentially dangerous phenomena are expected. (such as local winds, summer thunderstorms, rising streams or high waves) Be aware and pay attention to the latest weather updates, especially if you carry out activities exposed to weather or close to a stream or shoreline. 


Meteo18 Weather Cam more information Meteo18 Weather Cam


Thunder radar more information blitzortung!


Rain radar more information rain snow radar


Visit our other weather sites:

Template documentation
and downloads

And another site



Weather Underground History page Text

Daily Summary for September 9, 2017 Units:  Both    English   Metric
« Previous Day
Next Day »
Daily Weekly Monthly Yearly Custom
  High: Low: Average:
Temperature: TemperatureC °F /  -17.8 °C 11.0 °F /  -11.7 °C 14.4 °F /  -9.8 °C
Dew Point: DewpointC °F /  -17.8 °C 8.6 °F /  -13 °C 11.3 °F /  -11.5 °C
Humidity: Humidity % 55 % 82 %
Wind Speed: WindSpeedKMH mph /  0 km/h - 9.1 mph /  14.6 km/h
Wind Gust: WindSpeedGustKMH mph /  0 km/h - -
Wind:- - WSW
Pressure: PressurehPa in /  0 hPa 1002.6 in /  33948 hPa -
Precipitation: 6.3 in /  160.02 mm    
Historical Graphs
 
 
Tabular Data for September 9, 2017
Time Temperature Dew Point Pressure Wind Wind Speed Wind Gust Humidity Rainfall Rate (Hourly)
TemperatureC °F /  -17.8 °C DewpointC °F /  -17.8 °C PressurehPa in /  0 hPa Calm     Humidity % HourlyPrecipMM in /  0 mm
00:02 16.1 °F /  -8.8 °C 13.2 °F /  -10.4 °C 1004.6 in /  34015.8 hPa SSW 6.4 mph /  10.3 km/h 27.4 mph /  44.1 km/h 83 % 0.0 in /  0 mm
00:07 16.0 °F /  -8.9 °C 13.1 °F /  -10.5 °C 1004.6 in /  34015.8 hPa SSW 11.3 mph /  18.2 km/h 24.1 mph /  38.8 km/h 83 % 0.0 in /  0 mm
00:12 16.0 °F /  -8.9 °C 13.1 °F /  -10.5 °C 1004.3 in /  34005.6 hPa SW 11.3 mph /  18.2 km/h 25.7 mph /  41.4 km/h 83 % 0.0 in /  0 mm
00:17 15.9 °F /  -8.9 °C 13.0 °F /  -10.6 °C 1004.3 in /  34005.6 hPa WSW 17.7 mph /  28.5 km/h 25.7 mph /  41.4 km/h 83 % 0.0 in /  0 mm
00:22 15.8 °F /  -9 °C 13.1 °F /  -10.5 °C 1004.3 in /  34005.6 hPa SW 11.3 mph /  18.2 km/h 25.7 mph /  41.4 km/h 84 % 0.0 in /  0 mm
00:27 15.7 °F /  -9.1 °C 13.2 °F /  -10.4 °C 1004.3 in /  34005.6 hPa SW 11.3 mph /  18.2 km/h 22.5 mph /  36.2 km/h 85 % 0.0 in /  0 mm
00:32 15.6 °F /  -9.1 °C 13.1 °F /  -10.5 °C 1004.3 in /  34005.6 hPa SW 14.5 mph /  23.3 km/h 22.5 mph /  36.2 km/h 85 % 0.0 in /  0 mm
00:37 15.6 °F /  -9.1 °C 13.3 °F /  -10.4 °C 1004.3 in /  34005.6 hPa SSW 9.7 mph /  15.6 km/h 20.9 mph /  33.6 km/h 86 % 0.3 in /  7.62 mm
00:47 15.4 °F /  -9.2 °C 13.2 °F /  -10.4 °C 1004.3 in /  34005.6 hPa SW 9.7 mph /  15.6 km/h 24.1 mph /  38.8 km/h 87 % 0.3 in /  7.62 mm
00:52 15.4 °F /  -9.2 °C 13.2 °F /  -10.4 °C 1004.3 in /  34005.6 hPa SW 9.7 mph /  15.6 km/h 24.1 mph /  38.8 km/h 87 % 0.5 in /  12.7 mm
00:57 15.4 °F /  -9.2 °C 13.2 °F /  -10.4 °C 1004.3 in /  34005.6 hPa WSW 11.3 mph /  18.2 km/h 24.1 mph /  38.8 km/h 87 % 0.5 in /  12.7 mm
01:02 15.3 °F /  -9.3 °C 13.1 °F /  -10.5 °C 1004.3 in /  34005.6 hPa SW 14.5 mph /  23.3 km/h 20.9 mph /  33.6 km/h 87 % 0.5 in /  12.7 mm
01:07 15.3 °F /  -9.3 °C 13.1 °F /  -10.5 °C 1004.3 in /  34005.6 hPa SW 11.3 mph /  18.2 km/h 22.5 mph /  36.2 km/h 87 % 0.5 in /  12.7 mm
01:12 15.2 °F /  -9.3 °C 13.2 °F /  -10.4 °C 1004.3 in /  34005.6 hPa SSW 6.4 mph /  10.3 km/h 22.5 mph /  36.2 km/h 88 % 0.8 in /  20.32 mm
01:17 15.1 °F /  -9.4 °C 13.3 °F /  -10.4 °C 1004.3 in /  34005.6 hPa SW 4.8 mph /  7.7 km/h 20.9 mph /  33.6 km/h 89 % 1.3 in /  33.02 mm
01:22 15.0 °F /  -9.4 °C 13.4 °F /  -10.3 °C 1004.3 in /  34005.6 hPa SW 14.5 mph /  23.3 km/h 20.9 mph /  33.6 km/h 90 % 1.3 in /  33.02 mm
01:27 14.9 °F /  -9.5 °C 13.3 °F /  -10.4 °C 1004.3 in /  34005.6 hPa WSW 16.1 mph /  25.9 km/h 24.1 mph /  38.8 km/h 90 % 1.8 in /  45.72 mm
01:32 14.8 °F /  -9.6 °C 13.3 °F /  -10.4 °C 1004.3 in /  34005.6 hPa SW 11.3 mph /  18.2 km/h 25.7 mph /  41.4 km/h 91 % 2.3 in /  58.42 mm
01:37 14.8 °F /  -9.6 °C 13.5 °F /  -10.3 °C 1003.9 in /  33992.1 hPa South 9.7 mph /  15.6 km/h 27.4 mph /  44.1 km/h 92 % 2.3 in /  58.42 mm
01:42 14.7 °F /  -9.6 °C 13.4 °F /  -10.3 °C 1003.9 in /  33992.1 hPa SW 8.0 mph /  12.9 km/h 27.4 mph /  44.1 km/h 92 % 2.3 in /  58.42 mm
01:47 14.7 °F /  -9.6 °C 13.4 °F /  -10.3 °C 1003.9 in /  33992.1 hPa West 4.8 mph /  7.7 km/h 25.7 mph /  41.4 km/h 92 % 2.3 in /  58.42 mm
01:52 14.7 °F /  -9.6 °C 13.6 °F /  -10.2 °C 1004.3 in /  34005.6 hPa West 12.9 mph /  20.8 km/h 22.5 mph /  36.2 km/h 93 % 2.5 in /  63.5 mm
01:57 14.6 °F /  -9.7 °C 13.5 °F /  -10.3 °C 1004.3 in /  34005.6 hPa West 9.7 mph /  15.6 km/h 22.5 mph /  36.2 km/h 93 % 3.3 in /  83.82 mm
02:02 14.6 °F /  -9.7 °C 13.5 °F /  -10.3 °C 1004.3 in /  34005.6 hPa West 16.1 mph /  25.9 km/h 25.7 mph /  41.4 km/h 93 % 3.3 in /  83.82 mm
02:07 14.6 °F /  -9.7 °C 13.3 °F /  -10.4 °C 1003.9 in /  33992.1 hPa WSW 6.4 mph /  10.3 km/h 29.0 mph /  46.7 km/h 92 % 3.3 in /  83.82 mm
02:12 14.6 °F /  -9.7 °C 13.1 °F /  -10.5 °C 1003.9 in /  33992.1 hPa West 6.4 mph /  10.3 km/h 29.0 mph /  46.7 km/h 91 % 3.0 in /  76.2 mm
02:17 14.4 °F /  -9.8 °C 12.8 °F /  -10.7 °C 1003.6 in /  33981.9 hPa SW 9.7 mph /  15.6 km/h 29.0 mph /  46.7 km/h 90 % 2.8 in /  71.12 mm
02:22 14.3 °F /  -9.8 °C 12.5 °F /  -10.8 °C 1003.9 in /  33992.1 hPa WSW 17.7 mph /  28.5 km/h 27.4 mph /  44.1 km/h 89 % 2.3 in /  58.42 mm
02:27 14.2 °F /  -9.9 °C 12.4 °F /  -10.9 °C 1003.6 in /  33981.9 hPa SSW 8.0 mph /  12.9 km/h 27.4 mph /  44.1 km/h 89 % 2.0 in /  50.8 mm
02:32 14.1 °F /  -9.9 °C 12.5 °F /  -10.8 °C 1003.6 in /  33981.9 hPa SSW 9.7 mph /  15.6 km/h 27.4 mph /  44.1 km/h 90 % 2.0 in /  50.8 mm
02:37 14.0 °F /  -10 °C 12.6 °F /  -10.8 °C 1003.6 in /  33981.9 hPa SW 4.8 mph /  7.7 km/h 20.9 mph /  33.6 km/h 91 % 1.5 in /  38.1 mm
02:42 13.9 °F /  -10.1 °C 12.5 °F /  -10.8 °C 1003.6 in /  33981.9 hPa SSW 8.0 mph /  12.9 km/h 20.9 mph /  33.6 km/h 91 % 1.8 in /  45.72 mm
02:47 13.8 °F /  -10.1 °C 12.4 °F /  -10.9 °C 1003.6 in /  33981.9 hPa SW 9.7 mph /  15.6 km/h 20.9 mph /  33.6 km/h 91 % 1.5 in /  38.1 mm
02:52 13.8 °F /  -10.1 °C 12.5 °F /  -10.8 °C 1003.9 in /  33992.1 hPa SW 19.3 mph /  31.1 km/h 19.3 mph /  31.1 km/h 92 % 1.5 in /  38.1 mm
02:57 13.7 °F /  -10.2 °C 12.4 °F /  -10.9 °C 1003.9 in /  33992.1 hPa SW 12.9 mph /  20.8 km/h 20.9 mph /  33.6 km/h 92 % 0.8 in /  20.32 mm
03:02 13.7 °F /  -10.2 °C 12.4 °F /  -10.9 °C 1003.9 in /  33992.1 hPa WSW 22.5 mph /  36.2 km/h 22.5 mph /  36.2 km/h 92 % 0.5 in /  12.7 mm
03:07 13.6 °F /  -10.2 °C 12.3 °F /  -10.9 °C 1003.9 in /  33992.1 hPa WSW 8.0 mph /  12.9 km/h 24.1 mph /  38.8 km/h 92 % 0.5 in /  12.7 mm
03:12 13.5 °F /  -10.3 °C 12.2 °F /  -11 °C 1003.6 in /  33981.9 hPa SSW 11.3 mph /  18.2 km/h 24.1 mph /  38.8 km/h 92 % 0.5 in /  12.7 mm
03:17 13.4 °F /  -10.3 °C 12.3 °F /  -10.9 °C 1003.6 in /  33981.9 hPa SW 6.4 mph /  10.3 km/h 24.1 mph /  38.8 km/h 93 % 0.5 in /  12.7 mm
03:22 13.4 °F /  -10.3 °C 12.3 °F /  -10.9 °C 1003.6 in /  33981.9 hPa SW 14.5 mph /  23.3 km/h 24.1 mph /  38.8 km/h 93 % 0.5 in /  12.7 mm
03:27 13.3 °F /  -10.4 °C 12.2 °F /  -11 °C 1003.3 in /  33971.7 hPa SSW 8.0 mph /  12.9 km/h 24.1 mph /  38.8 km/h 93 % 0.5 in /  12.7 mm
03:37 13.3 °F /  -10.4 °C 12.4 °F /  -10.9 °C 1003.3 in /  33971.7 hPa SW 8.0 mph /  12.9 km/h 24.1 mph /  38.8 km/h 94 % 1.3 in /  33.02 mm
03:42 13.3 °F /  -10.4 °C 12.4 °F /  -10.9 °C 1003.3 in /  33971.7 hPa SSW 6.4 mph /  10.3 km/h 24.1 mph /  38.8 km/h 94 % 1.0 in /  25.4 mm
03:52 13.2 °F /  -10.4 °C 12.3 °F /  -10.9 °C 1003.3 in /  33971.7 hPa SW 8.0 mph /  12.9 km/h 22.5 mph /  36.2 km/h 94 % 0.8 in /  20.32 mm
03:57 13.1 °F /  -10.5 °C 12.2 °F /  -11 °C 1003.3 in /  33971.7 hPa SW 8.0 mph /  12.9 km/h 22.5 mph /  36.2 km/h 94 % 0.8 in /  20.32 mm
04:02 13.1 °F /  -10.5 °C 12.2 °F /  -11 °C 1003.3 in /  33971.7 hPa SW 16.1 mph /  25.9 km/h 22.5 mph /  36.2 km/h 94 % 0.8 in /  20.32 mm
04:07 13.1 °F /  -10.5 °C 12.0 °F /  -11.1 °C 1003.6 in /  33981.9 hPa SSW 8.0 mph /  12.9 km/h 22.5 mph /  36.2 km/h 93 % 0.8 in /  20.32 mm
04:12 13.0 °F /  -10.6 °C 11.9 °F /  -11.2 °C 1003.3 in /  33971.7 hPa SW 9.7 mph /  15.6 km/h 22.5 mph /  36.2 km/h 93 % 0.8 in /  20.32 mm
04:17 12.9 °F /  -10.6 °C 11.8 °F /  -11.2 °C 1003.6 in /  33981.9 hPa SSW 9.7 mph /  15.6 km/h 22.5 mph /  36.2 km/h 93 % 0.8 in /  20.32 mm
04:22 12.9 °F /  -10.6 °C 11.8 °F /  -11.2 °C 1003.3 in /  33971.7 hPa SW 8.0 mph /  12.9 km/h 20.9 mph /  33.6 km/h 93 % 0.5 in /  12.7 mm
04:27 12.8 °F /  -10.7 °C 11.7 °F /  -11.3 °C 1003.6 in /  33981.9 hPa SSW 4.8 mph /  7.7 km/h 19.3 mph /  31.1 km/h 93 % 0.5 in /  12.7 mm
04:32 12.8 °F /  -10.7 °C 11.7 °F /  -11.3 °C 1003.3 in /  33971.7 hPa SW 6.4 mph /  10.3 km/h 19.3 mph /  31.1 km/h 93 % 0.0 in /  0 mm
04:42 12.7 °F /  -10.7 °C 11.8 °F /  -11.2 °C 1003.3 in /  33971.7 hPa SSW 6.4 mph /  10.3 km/h 16.1 mph /  25.9 km/h 94 % 0.0 in /  0 mm
04:47 12.7 °F /  -10.7 °C 11.8 °F /  -11.2 °C 1002.9 in /  33958.2 hPa SSW 9.7 mph /  15.6 km/h 12.9 mph /  20.8 km/h 94 % 0.0 in /  0 mm
04:52 12.7 °F /  -10.7 °C 11.8 °F /  -11.2 °C 1002.9 in /  33958.2 hPa South 4.8 mph /  7.7 km/h 12.9 mph /  20.8 km/h 94 % 0.0 in /  0 mm
04:57 12.6 °F /  -10.8 °C 11.7 °F /  -11.3 °C 1002.9 in /  33958.2 hPa SW 8.0 mph /  12.9 km/h 11.3 mph /  18.2 km/h 94 % 0.0 in /  0 mm
05:02 12.7 °F /  -10.7 °C 11.8 °F /  -11.2 °C 1002.9 in /  33958.2 hPa SW 4.8 mph /  7.7 km/h 11.3 mph /  18.2 km/h 94 % 0.0 in /  0 mm
05:07 12.7 °F /  -10.7 °C 11.8 °F /  -11.2 °C 1002.9 in /  33958.2 hPa SW 8.0 mph /  12.9 km/h 12.9 mph /  20.8 km/h 94 % 0.3 in /  7.62 mm
05:22 12.6 °F /  -10.8 °C 11.7 °F /  -11.3 °C 1002.6 in /  33948 hPa SSW 6.4 mph /  10.3 km/h 19.3 mph /  31.1 km/h 94 % 0.5 in /  12.7 mm
05:27 12.6 °F /  -10.8 °C 11.7 °F /  -11.3 °C 1002.6 in /  33948 hPa South 8.0 mph /  12.9 km/h 19.3 mph /  31.1 km/h 94 % 0.5 in /  12.7 mm
05:32 12.6 °F /  -10.8 °C 11.7 °F /  -11.3 °C 1002.6 in /  33948 hPa SW 3.2 mph /  5.1 km/h 19.3 mph /  31.1 km/h 94 % 0.5 in /  12.7 mm
05:37 12.6 °F /  -10.8 °C 11.8 °F /  -11.2 °C 1002.6 in /  33948 hPa SSW 6.4 mph /  10.3 km/h 11.3 mph /  18.2 km/h 95 % 0.5 in /  12.7 mm
05:42 12.6 °F /  -10.8 °C 11.8 °F /  -11.2 °C 1002.6 in /  33948 hPa SSW 4.8 mph /  7.7 km/h 11.3 mph /  18.2 km/h 95 % 0.5 in /  12.7 mm
05:47 12.6 °F /  -10.8 °C 11.8 °F /  -11.2 °C 1002.6 in /  33948 hPa WSW 6.4 mph /  10.3 km/h 11.3 mph /  18.2 km/h 95 % 0.5 in /  12.7 mm
05:52 12.6 °F /  -10.8 °C 11.8 °F /  -11.2 °C 1002.6 in /  33948 hPa SW 8.0 mph /  12.9 km/h 11.3 mph /  18.2 km/h 95 % 0.5 in /  12.7 mm
06:02 12.6 °F /  -10.8 °C 11.8 °F /  -11.2 °C 1002.9 in /  33958.2 hPa SW 4.8 mph /  7.7 km/h 11.3 mph /  18.2 km/h 95 % 0.3 in /  7.62 mm
06:12 12.7 °F /  -10.7 °C 11.8 °F /  -11.2 °C 1002.6 in /  33948 hPa SW 4.8 mph /  7.7 km/h 14.5 mph /  23.3 km/h 94 % 0.3 in /  7.62 mm
06:17 12.7 °F /  -10.7 °C 11.8 °F /  -11.2 °C 1002.6 in /  33948 hPa WSW 6.4 mph /  10.3 km/h 11.3 mph /  18.2 km/h 94 % 0.3 in /  7.62 mm
06:22 12.8 °F /  -10.7 °C 11.9 °F /  -11.2 °C 1002.6 in /  33948 hPa SSW 14.5 mph /  23.3 km/h 14.5 mph /  23.3 km/h 94 % 0.0 in /  0 mm
06:27 12.8 °F /  -10.7 °C 11.9 °F /  -11.2 °C 1002.6 in /  33948 hPa SW 6.4 mph /  10.3 km/h 17.7 mph /  28.5 km/h 94 % 0.0 in /  0 mm
06:32 12.8 °F /  -10.7 °C 11.9 °F /  -11.2 °C 1002.6 in /  33948 hPa SW 9.7 mph /  15.6 km/h 17.7 mph /  28.5 km/h 94 % 0.0 in /  0 mm
06:37 12.9 °F /  -10.6 °C 12.0 °F /  -11.1 °C 1002.9 in /  33958.2 hPa SSW 6.4 mph /  10.3 km/h 17.7 mph /  28.5 km/h 94 % 0.0 in /  0 mm
06:42 12.9 °F /  -10.6 °C 12.0 °F /  -11.1 °C 1002.6 in /  33948 hPa SW 8.0 mph /  12.9 km/h 17.7 mph /  28.5 km/h 94 % 0.0 in /  0 mm
06:52 12.9 °F /  -10.6 °C 12.0 °F /  -11.1 °C 1002.9 in /  33958.2 hPa South 4.8 mph /  7.7 km/h 17.7 mph /  28.5 km/h 94 % 0.0 in /  0 mm
06:57 13.0 °F /  -10.6 °C 12.1 °F /  -11.1 °C 1002.6 in /  33948 hPa SW 4.8 mph /  7.7 km/h 19.3 mph /  31.1 km/h 94 % 0.0 in /  0 mm
07:02 13.0 °F /  -10.6 °C 12.1 °F /  -11.1 °C 1002.6 in /  33948 hPa SW 11.3 mph /  18.2 km/h 19.3 mph /  31.1 km/h 94 % 0.0 in /  0 mm
07:07 13.0 °F /  -10.6 °C 12.1 °F /  -11.1 °C 1002.6 in /  33948 hPa SW 8.0 mph /  12.9 km/h 16.1 mph /  25.9 km/h 94 % 0.0 in /  0 mm
07:12 13.1 °F /  -10.5 °C 12.2 °F /  -11 °C 1002.6 in /  33948 hPa WSW 4.8 mph /  7.7 km/h 16.1 mph /  25.9 km/h 94 % 0.0 in /  0 mm
07:17 13.1 °F /  -10.5 °C 12.2 °F /  -11 °C 1002.6 in /  33948 hPa WSW 12.9 mph /  20.8 km/h 17.7 mph /  28.5 km/h 94 % 0.0 in /  0 mm
07:22 13.1 °F /  -10.5 °C 12.2 °F /  -11 °C 1002.9 in /  33958.2 hPa SSW 8.0 mph /  12.9 km/h 17.7 mph /  28.5 km/h 94 % 0.0 in /  0 mm
07:27 13.1 °F /  -10.5 °C 12.2 °F /  -11 °C 1002.9 in /  33958.2 hPa SW 6.4 mph /  10.3 km/h 17.7 mph /  28.5 km/h 94 % 0.0 in /  0 mm
07:32 13.2 °F /  -10.4 °C 12.3 °F /  -10.9 °C 1002.9 in /  33958.2 hPa WSW 9.7 mph /  15.6 km/h 17.7 mph /  28.5 km/h 94 % 0.0 in /  0 mm
07:42 13.2 °F /  -10.4 °C 12.3 °F /  -10.9 °C 1002.9 in /  33958.2 hPa West 9.7 mph /  15.6 km/h 17.7 mph /  28.5 km/h 94 % 0.0 in /  0 mm
07:47 13.2 °F /  -10.4 °C 12.3 °F /  -10.9 °C 1002.9 in /  33958.2 hPa West 11.3 mph /  18.2 km/h 17.7 mph /  28.5 km/h 94 % 0.0 in /  0 mm
07:52 13.3 °F /  -10.4 °C 12.4 °F /  -10.9 °C 1002.9 in /  33958.2 hPa WSW 6.4 mph /  10.3 km/h 17.7 mph /  28.5 km/h 94 % 0.0 in /  0 mm
08:02 13.3 °F /  -10.4 °C 12.2 °F /  -11 °C 1002.9 in /  33958.2 hPa SW 11.3 mph /  18.2 km/h 16.1 mph /  25.9 km/h 93 % 0.0 in /  0 mm
08:12 13.4 °F /  -10.3 °C 12.3 °F /  -10.9 °C 1002.9 in /  33958.2 hPa WSW 8.0 mph /  12.9 km/h 17.7 mph /  28.5 km/h 93 % 0.0 in /  0 mm
08:17 13.4 °F /  -10.3 °C 12.3 °F /  -10.9 °C 1002.9 in /  33958.2 hPa SW 11.3 mph /  18.2 km/h 17.7 mph /  28.5 km/h 93 % 0.0 in /  0 mm
08:22 13.4 °F /  -10.3 °C 12.3 °F /  -10.9 °C 1002.9 in /  33958.2 hPa WSW 17.7 mph /  28.5 km/h 17.7 mph /  28.5 km/h 93 % 0.0 in /  0 mm
08:32 13.4 °F /  -10.3 °C 12.1 °F /  -11.1 °C 1002.9 in /  33958.2 hPa West 12.9 mph /  20.8 km/h 19.3 mph /  31.1 km/h 92 % 0.0 in /  0 mm
08:37 13.4 °F /  -10.3 °C 12.1 °F /  -11.1 °C 1002.9 in /  33958.2 hPa SSW 9.7 mph /  15.6 km/h 20.9 mph /  33.6 km/h 92 % 0.0 in /  0 mm
08:42 13.5 °F /  -10.3 °C 12.1 °F /  -11.1 °C 1002.9 in /  33958.2 hPa WSW 20.9 mph /  33.6 km/h 20.9 mph /  33.6 km/h 91 % 0.0 in /  0 mm
08:47 13.5 °F /  -10.3 °C 12.1 °F /  -11.1 °C 1002.9 in /  33958.2 hPa SW 11.3 mph /  18.2 km/h 22.5 mph /  36.2 km/h 91 % 0.0 in /  0 mm
08:52 13.6 °F /  -10.2 °C 12.2 °F /  -11 °C 1002.9 in /  33958.2 hPa SW 9.7 mph /  15.6 km/h 22.5 mph /  36.2 km/h 91 % 0.0 in /  0 mm
08:57 13.7 °F /  -10.2 °C 12.3 °F /  -10.9 °C 1003.3 in /  33971.7 hPa SW 12.9 mph /  20.8 km/h 22.5 mph /  36.2 km/h 91 % 0.0 in /  0 mm
09:02 13.7 °F /  -10.2 °C 12.1 °F /  -11.1 °C 1003.3 in /  33971.7 hPa West 8.0 mph /  12.9 km/h 22.5 mph /  36.2 km/h 90 % 0.0 in /  0 mm
09:12 13.7 °F /  -10.2 °C 12.1 °F /  -11.1 °C 1003.3 in /  33971.7 hPa SW 6.4 mph /  10.3 km/h 24.1 mph /  38.8 km/h 90 % 0.0 in /  0 mm
09:22 13.7 °F /  -10.2 °C 11.9 °F /  -11.2 °C 1003.3 in /  33971.7 hPa West 6.4 mph /  10.3 km/h 24.1 mph /  38.8 km/h 89 % 0.0 in /  0 mm
09:27 13.7 °F /  -10.2 °C 11.7 °F /  -11.3 °C 1003.3 in /  33971.7 hPa SW 6.4 mph /  10.3 km/h 24.1 mph /  38.8 km/h 88 % 0.0 in /  0 mm
09:32 13.7 °F /  -10.2 °C 11.7 °F /  -11.3 °C 1003.3 in /  33971.7 hPa WSW 8.0 mph /  12.9 km/h 24.1 mph /  38.8 km/h 88 % 0.0 in /  0 mm
09:37 13.7 °F /  -10.2 °C 11.7 °F /  -11.3 °C 1003.3 in /  33971.7 hPa West 8.0 mph /  12.9 km/h 19.3 mph /  31.1 km/h 88 % 0.0 in /  0 mm
09:42 13.8 °F /  -10.1 °C 12.0 °F /  -11.1 °C 1003.3 in /  33971.7 hPa WSW 3.2 mph /  5.1 km/h 19.3 mph /  31.1 km/h 89 % 0.0 in /  0 mm
09:47 13.8 °F /  -10.1 °C 12.0 °F /  -11.1 °C 1003.6 in /  33981.9 hPa WSW 6.4 mph /  10.3 km/h 17.7 mph /  28.5 km/h 89 % 0.0 in /  0 mm
09:57 14.2 °F /  -9.9 °C 12.1 °F /  -11.1 °C 1003.3 in /  33971.7 hPa WSW 9.7 mph /  15.6 km/h 19.3 mph /  31.1 km/h 87 % 0.0 in /  0 mm
10:02 14.2 °F /  -9.9 °C 12.1 °F /  -11.1 °C 1003.3 in /  33971.7 hPa WNW 16.1 mph /  25.9 km/h 19.3 mph /  31.1 km/h 87 % 0.0 in /  0 mm
10:07 14.3 °F /  -9.8 °C 12.0 °F /  -11.1 °C 1003.6 in /  33981.9 hPa SW 11.3 mph /  18.2 km/h 22.5 mph /  36.2 km/h 86 % 0.0 in /  0 mm
10:12 14.4 °F /  -9.8 °C 12.1 °F /  -11.1 °C 1003.6 in /  33981.9 hPa West 17.7 mph /  28.5 km/h 22.5 mph /  36.2 km/h 86 % 0.0 in /  0 mm
10:17 14.3 °F /  -9.8 °C 11.8 °F /  -11.2 °C 1003.6 in /  33981.9 hPa West 9.7 mph /  15.6 km/h 24.1 mph /  38.8 km/h 85 % 0.0 in /  0 mm
10:22 14.4 °F /  -9.8 °C 11.9 °F /  -11.2 °C 1003.6 in /  33981.9 hPa WSW 6.4 mph /  10.3 km/h 24.1 mph /  38.8 km/h 85 % 0.0 in /  0 mm
10:27 14.4 °F /  -9.8 °C 12.1 °F /  -11.1 °C 1003.6 in /  33981.9 hPa West 6.4 mph /  10.3 km/h 24.1 mph /  38.8 km/h 86 % 0.0 in /  0 mm
10:32 14.3 °F /  -9.8 °C 11.6 °F /  -11.3 °C 1003.6 in /  33981.9 hPa West 16.1 mph /  25.9 km/h 24.1 mph /  38.8 km/h 84 % 0.0 in /  0 mm
10:37 14.6 °F /  -9.7 °C 11.6 °F /  -11.3 °C 1003.6 in /  33981.9 hPa West 16.1 mph /  25.9 km/h 27.4 mph /  44.1 km/h 82 % 0.0 in /  0 mm
10:42 14.8 °F /  -9.6 °C 11.6 °F /  -11.3 °C 1003.9 in /  33992.1 hPa West 17.7 mph /  28.5 km/h 27.4 mph /  44.1 km/h 81 % 0.0 in /  0 mm
10:47 15.0 °F /  -9.4 °C 11.6 °F /  -11.3 °C 1003.9 in /  33992.1 hPa WSW 12.9 mph /  20.8 km/h 22.5 mph /  36.2 km/h 80 % 0.0 in /  0 mm
10:52 14.8 °F /  -9.6 °C 11.6 °F /  -11.3 °C 1003.9 in /  33992.1 hPa West 6.4 mph /  10.3 km/h 22.5 mph /  36.2 km/h 81 % 0.0 in /  0 mm
11:02 14.8 °F /  -9.6 °C 11.6 °F /  -11.3 °C 1003.9 in /  33992.1 hPa WSW 9.7 mph /  15.6 km/h 24.1 mph /  38.8 km/h 81 % 0.0 in /  0 mm
11:12 15.2 °F /  -9.3 °C 11.6 °F /  -11.3 °C 1003.9 in /  33992.1 hPa SSW 16.1 mph /  25.9 km/h 24.1 mph /  38.8 km/h 79 % 0.0 in /  0 mm
11:17 15.3 °F /  -9.3 °C 11.3 °F /  -11.5 °C 1003.9 in /  33992.1 hPa WSW 11.3 mph /  18.2 km/h 24.1 mph /  38.8 km/h 77 % 0.0 in /  0 mm
11:22 15.2 °F /  -9.3 °C 11.4 °F /  -11.4 °C 1004.3 in /  34005.6 hPa West 12.9 mph /  20.8 km/h 24.1 mph /  38.8 km/h 78 % 0.0 in /  0 mm
11:27 15.2 °F /  -9.3 °C 11.6 °F /  -11.3 °C 1004.3 in /  34005.6 hPa West 9.7 mph /  15.6 km/h 24.1 mph /  38.8 km/h 79 % 0.0 in /  0 mm
11:32 15.2 °F /  -9.3 °C 11.8 °F /  -11.2 °C 1004.3 in /  34005.6 hPa West 9.7 mph /  15.6 km/h 24.1 mph /  38.8 km/h 80 % 0.0 in /  0 mm
11:37 15.3 °F /  -9.3 °C 12.1 °F /  -11.1 °C 1004.3 in /  34005.6 hPa SW 12.9 mph /  20.8 km/h 22.5 mph /  36.2 km/h 81 % 0.0 in /  0 mm
11:42 15.2 °F /  -9.3 °C 11.6 °F /  -11.3 °C 1004.3 in /  34005.6 hPa SW 9.7 mph /  15.6 km/h 22.5 mph /  36.2 km/h 79 % 0.0 in /  0 mm
11:47 15.6 °F /  -9.1 °C 11.8 °F /  -11.2 °C 1004.3 in /  34005.6 hPa West 8.0 mph /  12.9 km/h 24.1 mph /  38.8 km/h 78 % 0.0 in /  0 mm
11:57 15.4 °F /  -9.2 °C 11.2 °F /  -11.6 °C 1004.3 in /  34005.6 hPa WSW 17.7 mph /  28.5 km/h 25.7 mph /  41.4 km/h 76 % 0.0 in /  0 mm
12:07 14.3 °F /  -9.8 °C 11.8 °F /  -11.2 °C 1004.3 in /  34005.6 hPa West 4.8 mph /  7.7 km/h 33.8 mph /  54.4 km/h 85 % 0.3 in /  7.62 mm
12:12 14.3 °F /  -9.8 °C 11.5 °F /  -11.4 °C 1004.3 in /  34005.6 hPa WSW 11.3 mph /  18.2 km/h 33.8 mph /  54.4 km/h 83 % 0.3 in /  7.62 mm
12:17 14.8 °F /  -9.6 °C 12.1 °F /  -11.1 °C 1004.3 in /  34005.6 hPa SW 4.8 mph /  7.7 km/h 27.4 mph /  44.1 km/h 84 % 0.3 in /  7.62 mm
12:22 15.5 °F /  -9.2 °C 12.3 °F /  -10.9 °C 1004.3 in /  34005.6 hPa WNW 16.1 mph /  25.9 km/h 17.7 mph /  28.5 km/h 81 % 0.3 in /  7.62 mm
12:32 15.7 °F /  -9.1 °C 11.9 °F /  -11.2 °C 1003.9 in /  33992.1 hPa WSW 12.9 mph /  20.8 km/h 27.4 mph /  44.1 km/h 78 % 0.3 in /  7.62 mm
12:42 15.9 °F /  -8.9 °C 11.5 °F /  -11.4 °C 1003.9 in /  33992.1 hPa West 11.3 mph /  18.2 km/h 29.0 mph /  46.7 km/h 75 % 0.3 in /  7.62 mm
12:52 16.6 °F /  -8.6 °C 12.4 °F /  -10.9 °C 1003.9 in /  33992.1 hPa NW 25.7 mph /  41.4 km/h 29.0 mph /  46.7 km/h 76 % 0.3 in /  7.62 mm
13:02 16.4 °F /  -8.7 °C 11.3 °F /  -11.5 °C 1003.9 in /  33992.1 hPa WNW 11.3 mph /  18.2 km/h 32.2 mph /  51.8 km/h 72 % 0.0 in /  0 mm
13:12 16.3 °F /  -8.7 °C 11.2 °F /  -11.6 °C 1003.9 in /  33992.1 hPa SW 17.7 mph /  28.5 km/h 32.2 mph /  51.8 km/h 72 % 0.0 in /  0 mm
13:17 16.4 °F /  -8.7 °C 10.7 °F /  -11.8 °C 1003.9 in /  33992.1 hPa West 9.7 mph /  15.6 km/h 25.7 mph /  41.4 km/h 69 % 0.0 in /  0 mm
13:22 16.2 °F /  -8.8 °C 10.5 °F /  -11.9 °C 1003.6 in /  33981.9 hPa SW 14.5 mph /  23.3 km/h 25.7 mph /  41.4 km/h 69 % 0.0 in /  0 mm
13:27 16.4 °F /  -8.7 °C 10.9 °F /  -11.7 °C 1003.6 in /  33981.9 hPa WSW 16.1 mph /  25.9 km/h 30.6 mph /  49.2 km/h 70 % 0.0 in /  0 mm
13:32 16.3 °F /  -8.7 °C 11.5 °F /  -11.4 °C 1003.6 in /  33981.9 hPa WNW 14.5 mph /  23.3 km/h 30.6 mph /  49.2 km/h 73 % 0.0 in /  0 mm
13:37 16.3 °F /  -8.7 °C 10.6 °F /  -11.9 °C 1003.6 in /  33981.9 hPa WSW 17.7 mph /  28.5 km/h 30.6 mph /  49.2 km/h 69 % 0.0 in /  0 mm
13:42 16.6 °F /  -8.6 °C 10.9 °F /  -11.7 °C 1003.6 in /  33981.9 hPa West 12.9 mph /  20.8 km/h 27.4 mph /  44.1 km/h 69 % 0.0 in /  0 mm
13:47 16.6 °F /  -8.6 °C 10.7 °F /  -11.8 °C 1003.6 in /  33981.9 hPa West 17.7 mph /  28.5 km/h 27.4 mph /  44.1 km/h 68 % 0.0 in /  0 mm
13:52 16.7 °F /  -8.5 °C 10.5 °F /  -11.9 °C 1003.6 in /  33981.9 hPa West 19.3 mph /  31.1 km/h 24.1 mph /  38.8 km/h 67 % 0.0 in /  0 mm
13:57 16.9 °F /  -8.4 °C 10.5 °F /  -11.9 °C 1003.6 in /  33981.9 hPa WNW 17.7 mph /  28.5 km/h 25.7 mph /  41.4 km/h 66 % 0.0 in /  0 mm
14:02 17.0 °F /  -8.3 °C 10.8 °F /  -11.8 °C 1003.6 in /  33981.9 hPa West 24.1 mph /  38.8 km/h 32.2 mph /  51.8 km/h 67 % 0.0 in /  0 mm
14:12 17.1 °F /  -8.3 °C 10.2 °F /  -12.1 °C 1003.6 in /  33981.9 hPa West 8.0 mph /  12.9 km/h 32.2 mph /  51.8 km/h 64 % 0.0 in /  0 mm
14:17 17.4 °F /  -8.1 °C 10.8 °F /  -11.8 °C 1003.6 in /  33981.9 hPa West 14.5 mph /  23.3 km/h 30.6 mph /  49.2 km/h 65 % 0.0 in /  0 mm
14:22 17.6 °F /  -8 °C 10.7 °F /  -11.8 °C 1003.6 in /  33981.9 hPa WSW 20.9 mph /  33.6 km/h 29.0 mph /  46.7 km/h 64 % 0.0 in /  0 mm
14:27 17.5 °F /  -8.1 °C 10.6 °F /  -11.9 °C 1003.6 in /  33981.9 hPa WNW 16.1 mph /  25.9 km/h 29.0 mph /  46.7 km/h 64 % 0.0 in /  0 mm
14:32 17.5 °F /  -8.1 °C 10.6 °F /  -11.9 °C 1003.3 in /  33971.7 hPa West 12.9 mph /  20.8 km/h 27.4 mph /  44.1 km/h 64 % 0.0 in /  0 mm
14:42 17.6 °F /  -8 °C 10.9 °F /  -11.7 °C 1003.3 in /  33971.7 hPa West 11.3 mph /  18.2 km/h 27.4 mph /  44.1 km/h 65 % 0.0 in /  0 mm
14:47 17.4 °F /  -8.1 °C 10.8 °F /  -11.8 °C 1003.3 in /  33971.7 hPa WSW 14.5 mph /  23.3 km/h 27.4 mph /  44.1 km/h 65 % 0.0 in /  0 mm
14:52 17.2 °F /  -8.2 °C 10.6 °F /  -11.9 °C 1003.3 in /  33971.7 hPa WSW 14.5 mph /  23.3 km/h 20.9 mph /  33.6 km/h 65 % 0.0 in /  0 mm
14:57 17.3 °F /  -8.2 °C 10.4 °F /  -12 °C 1003.3 in /  33971.7 hPa West 20.9 mph /  33.6 km/h 22.5 mph /  36.2 km/h 64 % 0.0 in /  0 mm
15:02 17.5 °F /  -8.1 °C 10.1 °F /  -12.2 °C 1003.6 in /  33981.9 hPa WNW 8.0 mph /  12.9 km/h 25.7 mph /  41.4 km/h 62 % 0.0 in /  0 mm
15:07 17.6 °F /  -8 °C 10.0 °F /  -12.2 °C 1003.3 in /  33971.7 hPa WSW 11.3 mph /  18.2 km/h 25.7 mph /  41.4 km/h 61 % 0.0 in /  0 mm
15:12 17.7 °F /  -7.9 °C 10.3 °F /  -12.1 °C 1003.3 in /  33971.7 hPa SSW 19.3 mph /  31.1 km/h 30.6 mph /  49.2 km/h 62 % 0.0 in /  0 mm
15:17 17.4 °F /  -8.1 °C 9.8 °F /  -12.3 °C 1003.3 in /  33971.7 hPa WSW 11.3 mph /  18.2 km/h 30.6 mph /  49.2 km/h 61 % 0.0 in /  0 mm
15:22 17.5 °F /  -8.1 °C 10.1 °F /  -12.2 °C 1003.3 in /  33971.7 hPa WSW 14.5 mph /  23.3 km/h 30.6 mph /  49.2 km/h 62 % 0.0 in /  0 mm
15:32 17.8 °F /  -7.9 °C 10.9 °F /  -11.7 °C 1003.3 in /  33971.7 hPa WSW 11.3 mph /  18.2 km/h 25.7 mph /  41.4 km/h 64 % 0.0 in /  0 mm
15:37 18.1 °F /  -7.7 °C 10.7 °F /  -11.8 °C 1003.3 in /  33971.7 hPa West 12.9 mph /  20.8 km/h 29.0 mph /  46.7 km/h 62 % 0.0 in /  0 mm
15:42 18.2 °F /  -7.7 °C 10.8 °F /  -11.8 °C 1003.3 in /  33971.7 hPa West 6.4 mph /  10.3 km/h 29.0 mph /  46.7 km/h 62 % 0.0 in /  0 mm
15:47 18.2 °F /  -7.7 °C 10.6 °F /  -11.9 °C 1003.3 in /  33971.7 hPa SW 12.9 mph /  20.8 km/h 29.0 mph /  46.7 km/h 61 % 0.0 in /  0 mm
15:52 17.8 °F /  -7.9 °C 10.4 °F /  -12 °C 1002.9 in /  33958.2 hPa West 9.7 mph /  15.6 km/h 27.4 mph /  44.1 km/h 62 % 0.0 in /  0 mm
15:57 17.8 °F /  -7.9 °C 10.4 °F /  -12 °C 1002.9 in /  33958.2 hPa West 8.0 mph /  12.9 km/h 27.4 mph /  44.1 km/h 62 % 0.0 in /  0 mm
16:02 17.8 °F /  -7.9 °C 11.1 °F /  -11.6 °C 1003.3 in /  33971.7 hPa NW 22.5 mph /  36.2 km/h 25.7 mph /  41.4 km/h 65 % 0.0 in /  0 mm
16:12 17.2 °F /  -8.2 °C 11.2 °F /  -11.6 °C 1003.3 in /  33971.7 hPa WNW 14.5 mph /  23.3 km/h 25.7 mph /  41.4 km/h 68 % 0.0 in /  0 mm
16:17 16.9 °F /  -8.4 °C 9.8 °F /  -12.3 °C 1002.9 in /  33958.2 hPa WNW 11.3 mph /  18.2 km/h 25.7 mph /  41.4 km/h 63 % 0.0 in /  0 mm
16:22 17.3 °F /  -8.2 °C 10.7 °F /  -11.8 °C 1002.9 in /  33958.2 hPa WSW 9.7 mph /  15.6 km/h 25.7 mph /  41.4 km/h 65 % 0.0 in /  0 mm
16:32 17.6 °F /  -8 °C 10.5 °F /  -11.9 °C 1002.9 in /  33958.2 hPa WNW 16.1 mph /  25.9 km/h 20.9 mph /  33.6 km/h 63 % 0.0 in /  0 mm
16:37 17.8 °F /  -7.9 °C 10.4 °F /  -12 °C 1002.9 in /  33958.2 hPa SW 12.9 mph /  20.8 km/h 20.9 mph /  33.6 km/h 62 % 0.0 in /  0 mm
16:42 17.8 °F /  -7.9 °C 10.4 °F /  -12 °C 1003.3 in /  33971.7 hPa West 12.9 mph /  20.8 km/h 25.7 mph /  41.4 km/h 62 % 0.0 in /  0 mm
16:47 17.8 °F /  -7.9 °C 10.4 °F /  -12 °C 1002.9 in /  33958.2 hPa WNW 9.7 mph /  15.6 km/h 25.7 mph /  41.4 km/h 62 % 0.0 in /  0 mm
16:52 17.7 °F /  -7.9 °C 10.3 °F /  -12.1 °C 1002.9 in /  33958.2 hPa West 6.4 mph /  10.3 km/h 25.7 mph /  41.4 km/h 62 % 0.0 in /  0 mm
16:57 17.6 °F /  -8 °C 10.0 °F /  -12.2 °C 1002.9 in /  33958.2 hPa West 8.0 mph /  12.9 km/h 25.7 mph /  41.4 km/h 61 % 0.0 in /  0 mm
17:02 17.6 °F /  -8 °C 10.7 °F /  -11.8 °C 1003.3 in /  33971.7 hPa WSW 4.8 mph /  7.7 km/h 25.7 mph /  41.4 km/h 64 % 0.0 in /  0 mm
17:12 17.9 °F /  -7.8 °C 10.8 °F /  -11.8 °C 1002.9 in /  33958.2 hPa WSW 14.5 mph /  23.3 km/h 19.3 mph /  31.1 km/h 63 % 0.0 in /  0 mm
17:17 17.9 °F /  -7.8 °C 11.0 °F /  -11.7 °C 1002.9 in /  33958.2 hPa WSW 8.0 mph /  12.9 km/h 22.5 mph /  36.2 km/h 64 % 0.0 in /  0 mm
17:22 18.1 °F /  -7.7 °C 9.7 °F /  -12.4 °C 1002.9 in /  33958.2 hPa West 11.3 mph /  18.2 km/h 22.5 mph /  36.2 km/h 58 % 0.0 in /  0 mm
17:32 18.2 °F /  -7.7 °C 9.0 °F /  -12.8 °C 1002.9 in /  33958.2 hPa NW 16.1 mph /  25.9 km/h 24.1 mph /  38.8 km/h 55 % 0.0 in /  0 mm
17:42 18.3 °F /  -7.6 °C 9.1 °F /  -12.7 °C 1002.9 in /  33958.2 hPa WNW 14.5 mph /  23.3 km/h 22.5 mph /  36.2 km/h 55 % 0.0 in /  0 mm
17:47 18.4 °F /  -7.6 °C 9.2 °F /  -12.7 °C 1002.9 in /  33958.2 hPa WSW 8.0 mph /  12.9 km/h 22.5 mph /  36.2 km/h 55 % 0.0 in /  0 mm
17:52 18.6 °F /  -7.4 °C 9.4 °F /  -12.6 °C 1002.9 in /  33958.2 hPa WSW 14.5 mph /  23.3 km/h 19.3 mph /  31.1 km/h 55 % 0.0 in /  0 mm
17:57 18.7 °F /  -7.4 °C 9.5 °F /  -12.5 °C 1002.9 in /  33958.2 hPa West 11.3 mph /  18.2 km/h 17.7 mph /  28.5 km/h 55 % 0.0 in /  0 mm
18:02 18.6 °F /  -7.4 °C 9.4 °F /  -12.6 °C 1002.9 in /  33958.2 hPa WNW 8.0 mph /  12.9 km/h 24.1 mph /  38.8 km/h 55 % 0.0 in /  0 mm
18:12 18.3 °F /  -7.6 °C 9.6 °F /  -12.4 °C 1003.3 in /  33971.7 hPa West 8.0 mph /  12.9 km/h 24.1 mph /  38.8 km/h 57 % 0.0 in /  0 mm
18:17 17.9 °F /  -7.8 °C 9.8 °F /  -12.3 °C 1003.6 in /  33981.9 hPa NNW 11.3 mph /  18.2 km/h 22.5 mph /  36.2 km/h 59 % 0.0 in /  0 mm
18:22 16.1 °F /  -8.8 °C 8.6 °F /  -13 °C 1003.6 in /  33981.9 hPa NW 19.3 mph /  31.1 km/h 22.5 mph /  36.2 km/h 61 % 0.0 in /  0 mm
18:27 15.1 °F /  -9.4 °C 8.8 °F /  -12.9 °C 1003.6 in /  33981.9 hPa West 14.5 mph /  23.3 km/h 40.2 mph /  64.7 km/h 66 % 0.0 in /  0 mm
18:32 14.7 °F /  -9.6 °C 9.1 °F /  -12.7 °C 1003.6 in /  33981.9 hPa NW 8.0 mph /  12.9 km/h 40.2 mph /  64.7 km/h 69 % 0.0 in /  0 mm
18:42 13.9 °F /  -10.1 °C 10.1 °F /  -12.2 °C 1003.6 in /  33981.9 hPa NW 1.6 mph /  2.6 km/h 25.7 mph /  41.4 km/h 78 % 0.5 in /  12.7 mm
18:47 13.8 °F /  -10.1 °C 10.4 °F /  -12 °C 1003.6 in /  33981.9 hPa NW 3.2 mph /  5.1 km/h 25.7 mph /  41.4 km/h 80 % 0.5 in /  12.7 mm
18:52 13.9 °F /  -10.1 °C 10.7 °F /  -11.8 °C 1003.6 in /  33981.9 hPa NNW 3.2 mph /  5.1 km/h 16.1 mph /  25.9 km/h 81 % 0.5 in /  12.7 mm
18:57 14.2 °F /  -9.9 °C 11.0 °F /  -11.7 °C 1003.6 in /  33981.9 hPa Calm   9.7 mph /  15.6 km/h 81 % 0.5 in /  12.7 mm
19:02 14.6 °F /  -9.7 °C 11.2 °F /  -11.6 °C 1003.6 in /  33981.9 hPa NW 1.6 mph /  2.6 km/h 9.7 mph /  15.6 km/h 80 % 0.5 in /  12.7 mm
19:12 14.9 °F /  -9.5 °C 10.9 °F /  -11.7 °C 1003.6 in /  33981.9 hPa WNW 3.2 mph /  5.1 km/h 12.9 mph /  20.8 km/h 77 % 0.5 in /  12.7 mm
19:17 15.1 °F /  -9.4 °C 10.5 °F /  -11.9 °C 1003.6 in /  33981.9 hPa NW 8.0 mph /  12.9 km/h 12.9 mph /  20.8 km/h 74 % 0.5 in /  12.7 mm
19:22 15.0 °F /  -9.4 °C 10.6 °F /  -11.9 °C 1003.6 in /  33981.9 hPa NW 9.7 mph /  15.6 km/h 16.1 mph /  25.9 km/h 75 % 0.5 in /  12.7 mm
19:27 14.7 °F /  -9.6 °C 10.5 °F /  -11.9 °C 1003.9 in /  33992.1 hPa WNW 3.2 mph /  5.1 km/h 16.1 mph /  25.9 km/h 76 % 0.5 in /  12.7 mm
19:32 14.4 °F /  -9.8 °C 10.8 °F /  -11.8 °C 1003.9 in /  33992.1 hPa WNW 3.2 mph /  5.1 km/h 16.1 mph /  25.9 km/h 79 % 0.5 in /  12.7 mm
19:37 14.4 °F /  -9.8 °C 11.0 °F /  -11.7 °C 1003.9 in /  33992.1 hPa WNW 4.8 mph /  7.7 km/h 16.1 mph /  25.9 km/h 80 % 0.3 in /  7.62 mm
19:42 14.2 °F /  -9.9 °C 11.0 °F /  -11.7 °C 1003.9 in /  33992.1 hPa NNW 8.0 mph /  12.9 km/h 14.5 mph /  23.3 km/h 81 % 0.0 in /  0 mm
19:47 14.1 °F /  -9.9 °C 11.1 °F /  -11.6 °C 1003.6 in /  33981.9 hPa NNW 8.0 mph /  12.9 km/h 14.5 mph /  23.3 km/h 82 % 0.0 in /  0 mm
19:52 13.9 °F /  -10.1 °C 11.1 °F /  -11.6 °C 1003.6 in /  33981.9 hPa NNW 8.0 mph /  12.9 km/h 14.5 mph /  23.3 km/h 83 % 0.0 in /  0 mm
19:57 13.9 °F /  -10.1 °C 11.1 °F /  -11.6 °C 1003.6 in /  33981.9 hPa NNW 6.4 mph /  10.3 km/h 11.3 mph /  18.2 km/h 83 % 0.0 in /  0 mm
20:02 13.8 °F /  -10.1 °C 11.1 °F /  -11.6 °C 1003.6 in /  33981.9 hPa NNW 3.2 mph /  5.1 km/h 11.3 mph /  18.2 km/h 84 % 0.0 in /  0 mm
20:12 13.6 °F /  -10.2 °C 11.1 °F /  -11.6 °C 1003.9 in /  33992.1 hPa Calm   9.7 mph /  15.6 km/h 85 % 0.0 in /  0 mm
20:17 13.4 °F /  -10.3 °C 10.8 °F /  -11.8 °C 1003.9 in /  33992.1 hPa NW 3.2 mph /  5.1 km/h 8.0 mph /  12.9 km/h 84 % 0.0 in /  0 mm
20:22 13.4 °F /  -10.3 °C 10.6 °F /  -11.9 °C 1003.9 in /  33992.1 hPa NNW 1.6 mph /  2.6 km/h 8.0 mph /  12.9 km/h 83 % 0.0 in /  0 mm
20:27 13.3 °F /  -10.4 °C 10.3 °F /  -12.1 °C 1004.3 in /  34005.6 hPa North 6.4 mph /  10.3 km/h 8.0 mph /  12.9 km/h 82 % 0.0 in /  0 mm
20:32 13.1 °F /  -10.5 °C 10.1 °F /  -12.2 °C 1004.3 in /  34005.6 hPa WNW 3.2 mph /  5.1 km/h 8.0 mph /  12.9 km/h 82 % 0.0 in /  0 mm
20:37 12.9 °F /  -10.6 °C 10.1 °F /  -12.2 °C 1004.3 in /  34005.6 hPa NW 4.8 mph /  7.7 km/h 6.4 mph /  10.3 km/h 83 % 0.0 in /  0 mm
20:42 12.8 °F /  -10.7 °C 10.0 °F /  -12.2 °C 1004.3 in /  34005.6 hPa NW 1.6 mph /  2.6 km/h 8.0 mph /  12.9 km/h 83 % 0.0 in /  0 mm
20:47 12.8 °F /  -10.7 °C 10.0 °F /  -12.2 °C 1004.3 in /  34005.6 hPa WNW 1.6 mph /  2.6 km/h 8.0 mph /  12.9 km/h 83 % 0.0 in /  0 mm
20:52 12.7 °F /  -10.7 °C 9.9 °F /  -12.3 °C 1004.6 in /  34015.8 hPa NW 6.4 mph /  10.3 km/h 8.0 mph /  12.9 km/h 83 % 0.0 in /  0 mm
20:57 12.7 °F /  -10.7 °C 9.9 °F /  -12.3 °C 1004.6 in /  34015.8 hPa WNW 1.6 mph /  2.6 km/h 8.0 mph /  12.9 km/h 83 % 0.0 in /  0 mm
21:02 12.7 °F /  -10.7 °C 9.7 °F /  -12.4 °C 1004.6 in /  34015.8 hPa NW 1.6 mph /  2.6 km/h 8.0 mph /  12.9 km/h 82 % 0.0 in /  0 mm
21:12 12.7 °F /  -10.7 °C 9.5 °F /  -12.5 °C 1005.0 in /  34029.3 hPa WNW 4.8 mph /  7.7 km/h 8.0 mph /  12.9 km/h 81 % 0.0 in /  0 mm
21:17 12.8 °F /  -10.7 °C 9.6 °F /  -12.4 °C 1005.0 in /  34029.3 hPa WNW 4.8 mph /  7.7 km/h 8.0 mph /  12.9 km/h 81 % 0.0 in /  0 mm
21:22 12.9 °F /  -10.6 °C 9.7 °F /  -12.4 °C 1005.0 in /  34029.3 hPa Calm   8.0 mph /  12.9 km/h 81 % 0.0 in /  0 mm
21:27 12.9 °F /  -10.6 °C 9.7 °F /  -12.4 °C 1005.0 in /  34029.3 hPa Calm   8.0 mph /  12.9 km/h 81 % 0.0 in /  0 mm
21:32 12.9 °F /  -10.6 °C 9.7 °F /  -12.4 °C 1005.3 in /  34039.5 hPa SW 3.2 mph /  5.1 km/h 6.4 mph /  10.3 km/h 81 % 0.0 in /  0 mm
21:42 12.9 °F /  -10.6 °C 10.1 °F /  -12.2 °C 1005.3 in /  34039.5 hPa SW 8.0 mph /  12.9 km/h 8.0 mph /  12.9 km/h 83 % 0.0 in /  0 mm
21:47 12.8 °F /  -10.7 °C 10.0 °F /  -12.2 °C 1005.3 in /  34039.5 hPa SSW 6.4 mph /  10.3 km/h 11.3 mph /  18.2 km/h 83 % 0.0 in /  0 mm
21:52 12.7 °F /  -10.7 °C 9.9 °F /  -12.3 °C 1005.3 in /  34039.5 hPa SW 9.7 mph /  15.6 km/h 11.3 mph /  18.2 km/h 83 % 0.0 in /  0 mm
21:57 12.7 °F /  -10.7 °C 10.1 °F /  -12.2 °C 1005.3 in /  34039.5 hPa WSW 9.7 mph /  15.6 km/h 11.3 mph /  18.2 km/h 84 % 0.0 in /  0 mm
22:02 12.6 °F /  -10.8 °C 10.1 °F /  -12.2 °C 1005.3 in /  34039.5 hPa WSW 9.7 mph /  15.6 km/h 11.3 mph /  18.2 km/h 85 % 0.0 in /  0 mm
22:07 12.6 °F /  -10.8 °C 10.3 °F /  -12.1 °C 1005.3 in /  34039.5 hPa SW 3.2 mph /  5.1 km/h 14.5 mph /  23.3 km/h 86 % 0.0 in /  0 mm
22:12 12.5 °F /  -10.8 °C 10.2 °F /  -12.1 °C 1005.3 in /  34039.5 hPa SW 4.8 mph /  7.7 km/h 14.5 mph /  23.3 km/h 86 % 0.0 in /  0 mm
22:17 12.4 °F /  -10.9 °C 10.1 °F /  -12.2 °C 1005.3 in /  34039.5 hPa WSW 4.8 mph /  7.7 km/h 12.9 mph /  20.8 km/h 86 % 0.0 in /  0 mm
22:22 12.4 °F /  -10.9 °C 10.1 °F /  -12.2 °C 1005.3 in /  34039.5 hPa WSW 4.8 mph /  7.7 km/h 8.0 mph /  12.9 km/h 86 % 0.0 in /  0 mm
22:32 12.3 °F /  -10.9 °C 10.4 °F /  -12 °C 1005.3 in /  34039.5 hPa West 4.8 mph /  7.7 km/h 4.8 mph /  7.7 km/h 88 % 0.0 in /  0 mm
22:37 12.2 °F /  -11 °C 10.3 °F /  -12.1 °C 1005.3 in /  34039.5 hPa WNW 4.8 mph /  7.7 km/h 6.4 mph /  10.3 km/h 88 % 0.0 in /  0 mm
22:42 12.2 °F /  -11 °C 10.3 °F /  -12.1 °C 1005.3 in /  34039.5 hPa West 6.4 mph /  10.3 km/h 8.0 mph /  12.9 km/h 88 % 0.0 in /  0 mm
22:47 12.2 °F /  -11 °C 10.3 °F /  -12.1 °C 1005.6 in /  34049.6 hPa WNW 1.6 mph /  2.6 km/h 8.0 mph /  12.9 km/h 88 % 0.0 in /  0 mm
22:52 12.1 °F /  -11.1 °C 10.2 °F /  -12.1 °C 1005.6 in /  34049.6 hPa Calm   8.0 mph /  12.9 km/h 88 % 0.0 in /  0 mm
22:57 11.9 °F /  -11.2 °C 10.0 °F /  -12.2 °C 1005.6 in /  34049.6 hPa SW 1.6 mph /  2.6 km/h 8.0 mph /  12.9 km/h 88 % 0.0 in /  0 mm
23:02 11.8 °F /  -11.2 °C 10.0 °F /  -12.2 °C 1005.6 in /  34049.6 hPa Calm   4.8 mph /  7.7 km/h 89 % 0.0 in /  0 mm
23:07 11.6 °F /  -11.3 °C 9.8 °F /  -12.3 °C 1005.6 in /  34049.6 hPa Calm   4.8 mph /  7.7 km/h 89 % 0.0 in /  0 mm
23:12 11.5 °F /  -11.4 °C 9.7 °F /  -12.4 °C 1005.6 in /  34049.6 hPa Calm   3.2 mph /  5.1 km/h 89 % 0.0 in /  0 mm
23:17 11.4 °F /  -11.4 °C 9.8 °F /  -12.3 °C 1005.6 in /  34049.6 hPa Calm     90 % 0.0 in /  0 mm
23:22 11.3 °F /  -11.5 °C 9.7 °F /  -12.4 °C 1005.6 in /  34049.6 hPa Calm     90 % 0.0 in /  0 mm
23:27 11.2 °F /  -11.6 °C 9.6 °F /  -12.4 °C 1005.6 in /  34049.6 hPa Calm     90 % 0.0 in /  0 mm
23:32 11.1 °F /  -11.6 °C 9.5 °F /  -12.5 °C 1005.6 in /  34049.6 hPa Calm     90 % 0.0 in /  0 mm
23:37 11.0 °F /  -11.7 °C 9.6 °F /  -12.4 °C 1006.0 in /  34063.2 hPa Calm     91 % 0.0 in /  0 mm
23:42 11.0 °F /  -11.7 °C 9.6 °F /  -12.4 °C 1006.0 in /  34063.2 hPa Calm     91 % 0.0 in /  0 mm
23:47 11.1 °F /  -11.6 °C 9.8 °F /  -12.3 °C 1006.0 in /  34063.2 hPa Calm     92 % 0.0 in /  0 mm
23:52 11.1 °F /  -11.6 °C 9.7 °F /  -12.4 °C 1006.0 in /  34063.2 hPa Calm     91 % 0.0 in /  0 mm
23:57 11.1 °F /  -11.6 °C 9.7 °F /  -12.4 °C 1006.0 in /  34063.2 hPa Calm     91 % 0.0 in /  0 mm
Meteo18
Compliments of Weather Underground - 4 mb

Script developed by  Jim McMurry - jmcmurry@mwt.net Adapted for the template by  Wim van der Kuil - Leuven-Template.eu

You find our weather info also at:

European Weather Network

Weather Underground

Equipment we use:

Weather-station
Davis Vue

Weather-program
Meteobridge

Weather-server
Raspberry PI 2 B+

Provider
1 and 1

Davis Vue

Meteobridge

Raspberry PI 2 B+

1 and 1